Terminal Aerodrome Forecast
Issued by NWS Blacksburg, VA

Current Version | Previous Version | Graphics & Text | Print | Product List | Glossary On
Versions: 1 2 3 4 5 6 7 8 9 10 11 12 13 14 15 16 17 18 19 20 21
000
FTUS41 KRNK 181509 AAA
TAFBLF
TAF AMD
KBLF 181509Z 1815/1912 12006KT P6SM -SHRA OVC006
      TEMPO 1816/1820 2SM SHRA OVC007
     FM190300 15005KT P6SM OVC008
     FM190900 15005KT P6SM BKN008=

USA.gov is the U.S. government's official web portal to all federal, state and local government web resources and services.